createdAt,value
2022-08-17T00:02:24.175Z,7.70
2022-08-17T00:05:29.632Z,9.50
2022-08-17T00:08:34.170Z,9.07
2022-08-17T00:11:36.793Z,9.07
2022-08-17T00:14:40.068Z,8.40
2022-08-17T00:17:43.219Z,8.60
2022-08-17T00:20:46.114Z,9.10
2022-08-17T00:23:49.519Z,8.63
2022-08-17T00:26:52.290Z,8.05
2022-08-17T00:29:55.490Z,7.90
2022-08-17T00:33:22.741Z,8.32
2022-08-17T00:36:21.094Z,8.20
2022-08-17T00:39:24.035Z,8.38
2022-08-17T00:42:30.932Z,8.60
2022-08-17T00:45:33.813Z,8.32
2022-08-17T00:48:36.686Z,8.38
2022-08-17T00:51:39.284Z,8.55
2022-08-17T00:54:42.400Z,8.60
2022-08-17T00:57:45.255Z,8.38
2022-08-17T01:00:47.989Z,7.68
2022-08-17T01:03:50.625Z,8.65
2022-08-17T01:06:53.043Z,8.57
2022-08-17T01:09:55.773Z,8.52
2022-08-17T01:12:58.305Z,8.30
2022-08-17T01:16:01.226Z,8.45
2022-08-17T01:19:03.873Z,8.07
2022-08-17T01:22:06.483Z,9.07
2022-08-17T01:25:09.113Z,8.60
2022-08-17T01:28:12.035Z,8.48
2022-08-17T01:31:34.709Z,8.95
2022-08-17T01:34:43.580Z,8.82
2022-08-17T01:37:53.349Z,8.10
2022-08-17T01:40:57.043Z,8.77
2022-08-17T01:44:01.218Z,9.27
2022-08-17T01:47:04.405Z,12.80
2022-08-17T01:50:07.335Z,9.23
2022-08-17T01:53:09.972Z,10.57
2022-08-17T01:56:12.261Z,8.93
2022-08-17T01:59:14.777Z,11.35
2022-08-17T02:02:31.412Z,8.45
2022-08-17T02:05:34.821Z,10.20
2022-08-17T02:08:39.436Z,9.73
2022-08-17T02:12:00.052Z,10.98
2022-08-17T02:15:22.302Z,9.68
2022-08-17T02:18:25.135Z,9.15
2022-08-17T02:21:28.092Z,11.55
2022-08-17T02:24:58.834Z,9.75
2022-08-17T02:27:53.632Z,8.95
2022-08-17T02:31:00.816Z,8.45
2022-08-17T02:34:05.436Z,8.15
2022-08-17T02:37:08.145Z,9.57
2022-08-17T02:40:10.393Z,10.35
2022-08-17T02:43:12.615Z,8.50
2022-08-17T02:46:14.769Z,8.05
2022-08-17T02:49:17.634Z,8.45
2022-08-17T02:52:43.079Z,8.15
2022-08-17T02:55:42.839Z,9.32
2022-08-17T02:58:45.308Z,8.20
2022-08-17T03:01:47.790Z,8.55
2022-08-17T03:04:50.886Z,8.20
2022-08-17T03:07:53.813Z,8.40
2022-08-17T03:10:56.565Z,8.57
2022-08-17T03:13:59.812Z,9.98
2022-08-17T03:17:02.881Z,9.25
2022-08-17T03:20:06.507Z,8.68
2022-08-17T03:23:09.208Z,8.48
2022-08-17T03:26:15.475Z,8.52
2022-08-17T03:29:19.906Z,8.25
2022-08-17T03:32:22.318Z,8.18
2022-08-17T03:35:25.275Z,7.85
2022-08-17T03:38:27.687Z,8.77
2022-08-17T03:41:30.548Z,8.48
2022-08-17T03:44:33.691Z,8.45
2022-08-17T03:47:36.482Z,10.02
2022-08-17T03:50:39.715Z,8.38
2022-08-17T03:53:42.304Z,9.45
2022-08-17T03:56:46.012Z,8.23
2022-08-17T03:59:48.526Z,8.85
2022-08-17T04:02:50.939Z,8.68
2022-08-17T04:05:54.477Z,7.93
2022-08-17T04:08:56.802Z,8.73
2022-08-17T04:12:02.369Z,7.82
2022-08-17T04:15:08.267Z,8.18
2022-08-17T04:18:11.160Z,7.97
2022-08-17T04:21:14.397Z,8.60
2022-08-17T04:24:17.606Z,8.30
2022-08-17T04:27:20.603Z,7.93
2022-08-17T04:30:22.797Z,8.18
2022-08-17T04:33:25.790Z,9.38
2022-08-17T04:36:29.058Z,14.15
2022-08-17T04:39:33.853Z,11.68
2022-08-17T04:42:36.282Z,13.40
2022-08-17T04:45:39.045Z,12.48
2022-08-17T04:48:42.289Z,11.73
2022-08-17T04:51:55.666Z,14.27
2022-08-17T04:54:59.252Z,12.98
2022-08-17T04:58:01.510Z,14.27
2022-08-17T05:01:04.068Z,12.40
2022-08-17T05:04:34.489Z,12.50
2022-08-17T05:07:31.573Z,13.90
2022-08-17T05:10:34.585Z,12.27
2022-08-17T05:13:39.911Z,12.88
2022-08-17T05:16:42.927Z,14.90
2022-08-17T05:19:51.370Z,12.20
2022-08-17T05:22:54.664Z,12.15
2022-08-17T05:25:57.267Z,11.95
2022-08-17T05:29:02.801Z,13.60
2022-08-17T05:32:39.509Z,13.68
2022-08-17T05:35:28.426Z,15.40
2022-08-17T05:38:30.614Z,13.38
2022-08-17T05:41:33.267Z,17.77
2022-08-17T05:44:35.871Z,19.00
2022-08-17T05:47:38.398Z,20.25
2022-08-17T05:50:41.242Z,21.20
2022-08-17T05:53:44.310Z,19.40
2022-08-17T05:56:47.130Z,20.27
2022-08-17T05:59:50.053Z,18.30
2022-08-17T06:02:53.596Z,17.63
2022-08-17T06:05:56.575Z,15.35
2022-08-17T06:08:59.523Z,16.40
2022-08-17T06:12:02.041Z,17.98
2022-08-17T06:15:05.001Z,17.35
2022-08-17T06:18:08.321Z,20.35
2022-08-17T06:21:11.510Z,17.63
2022-08-17T06:24:14.388Z,19.40
2022-08-17T06:27:17.048Z,20.30
2022-08-17T06:30:19.707Z,20.48
2022-08-17T06:33:22.311Z,22.75
2022-08-17T06:36:25.247Z,21.27
2022-08-17T06:39:28.357Z,20.65
2022-08-17T06:42:59.889Z,19.77
2022-08-17T06:45:53.928Z,16.98
2022-08-17T06:48:56.841Z,19.88
2022-08-17T06:51:59.960Z,18.88
2022-08-17T06:55:03.499Z,17.13
2022-08-17T06:58:16.423Z,19.08
2022-08-17T07:01:19.131Z,21.05
2022-08-17T07:04:21.836Z,23.13
2022-08-17T07:07:24.381Z,22.13
2022-08-17T07:10:27.146Z,23.35
2022-08-17T07:13:30.030Z,24.85
2022-08-17T07:16:31.997Z,24.73
2022-08-17T07:19:34.986Z,23.23
2022-08-17T07:22:55.217Z,24.17
2022-08-17T07:26:01.075Z,23.20
2022-08-17T07:29:04.058Z,24.55
2022-08-17T07:32:06.934Z,27.58
2022-08-17T07:35:10.685Z,26.13
2022-08-17T07:38:25.349Z,23.50
2022-08-17T07:41:57.663Z,23.83
2022-08-17T07:44:52.760Z,23.70
2022-08-17T07:47:55.661Z,21.55
2022-08-17T07:50:58.184Z,27.05
2022-08-17T07:54:13.539Z,22.50
2022-08-17T07:57:17.025Z,24.20
2022-08-17T08:00:19.250Z,22.85
2022-08-17T08:03:33.473Z,21.88
2022-08-17T08:06:36.038Z,22.33
2022-08-17T08:09:38.597Z,25.55
2022-08-17T08:12:41.760Z,26.58
2022-08-17T08:15:44.988Z,20.33
2022-08-17T08:18:55.915Z,21.40
2022-08-17T08:21:59.516Z,20.67
2022-08-17T08:25:02.221Z,19.80
2022-08-17T08:28:04.662Z,20.85
2022-08-17T08:31:07.433Z,20.02
2022-08-17T08:35:00.688Z,20.67
2022-08-17T08:37:35.773Z,18.23
2022-08-17T08:40:42.542Z,16.48
2022-08-17T08:43:48.347Z,14.85
2022-08-17T08:46:53.375Z,16.83
2022-08-17T08:50:03.830Z,14.55
2022-08-17T08:53:06.991Z,13.70
2022-08-17T08:56:09.334Z,16.52
2022-08-17T08:59:12.150Z,15.10
2022-08-17T09:02:14.687Z,14.35
2022-08-17T09:05:17.993Z,13.70
2022-08-17T09:08:20.880Z,14.75
2022-08-17T09:11:23.560Z,15.02
2022-08-17T09:14:28.901Z,15.13
2022-08-17T09:17:31.978Z,13.25
2022-08-17T09:20:34.556Z,14.13
2022-08-17T09:23:37.658Z,12.05
2022-08-17T09:26:40.668Z,14.50
2022-08-17T09:29:43.987Z,15.60
2022-08-17T09:32:47.288Z,16.80
2022-08-17T09:35:49.859Z,15.05
2022-08-17T09:38:53.491Z,16.05
2022-08-17T09:41:58.106Z,15.20
2022-08-17T09:45:01.430Z,14.80
2022-08-17T09:48:04.372Z,13.88
2022-08-17T09:51:07.605Z,13.80
2022-08-17T09:54:37.414Z,13.32
2022-08-17T09:57:32.657Z,13.45
2022-08-17T10:00:35.390Z,16.65
2022-08-17T10:03:38.138Z,16.45
2022-08-17T10:06:40.766Z,17.35
2022-08-17T10:09:43.446Z,16.60
2022-08-17T10:12:47.090Z,16.63
2022-08-17T10:15:50.356Z,13.82
2022-08-17T10:18:53.453Z,13.68
2022-08-17T10:22:01.122Z,12.98
2022-08-17T10:25:23.562Z,14.75
2022-08-17T10:28:29.725Z,12.73
2022-08-17T10:31:35.173Z,11.75
2022-08-17T10:34:41.550Z,11.38
2022-08-17T10:37:44.746Z,16.98
2022-08-17T10:40:47.772Z,16.83
2022-08-17T10:44:36.766Z,13.75
2022-08-17T10:47:12.817Z,12.38
2022-08-17T10:50:15.426Z,11.50
2022-08-17T10:53:19.987Z,12.77
2022-08-17T10:56:23.186Z,12.52
2022-08-17T10:59:25.453Z,12.82
2022-08-17T11:02:28.548Z,13.15
2022-08-17T11:05:31.559Z,14.80
2022-08-17T11:08:34.297Z,17.33
2022-08-17T11:11:37.077Z,15.82
2022-08-17T11:14:40.079Z,14.95
2022-08-17T11:17:43.588Z,16.23
2022-08-17T11:20:45.769Z,17.98
2022-08-17T11:23:48.515Z,17.92
2022-08-17T11:26:51.522Z,18.08
2022-08-17T11:30:01.282Z,14.93
2022-08-17T11:33:06.055Z,17.40
2022-08-17T11:36:09.343Z,15.13
2022-08-17T11:39:12.240Z,16.38
2022-08-17T11:42:17.707Z,20.75
2022-08-17T11:45:31.889Z,16.05
2022-08-17T11:48:35.054Z,17.20
2022-08-17T11:51:38.478Z,18.02
2022-08-17T11:54:41.095Z,15.32
2022-08-17T11:57:44.419Z,15.25
2022-08-17T12:00:46.935Z,15.20
2022-08-17T12:03:54.003Z,14.07
2022-08-17T12:06:58.530Z,13.68
2022-08-17T12:10:01.055Z,12.20
2022-08-17T12:13:04.048Z,15.05
2022-08-17T12:16:07.408Z,15.52
2022-08-17T12:19:10.279Z,15.63
2022-08-17T12:22:12.989Z,14.63
2022-08-17T12:25:15.297Z,13.63
2022-08-17T12:28:20.093Z,14.40
2022-08-17T12:31:23.217Z,14.88
2022-08-17T12:34:25.891Z,14.68
2022-08-17T12:37:29.049Z,14.35
2022-08-17T12:40:32.576Z,14.07
2022-08-17T12:43:35.571Z,13.57
2022-08-17T12:46:37.874Z,13.70
2022-08-17T12:49:40.559Z,15.07
2022-08-17T12:52:43.095Z,14.93
2022-08-17T12:55:47.363Z,13.70
2022-08-17T12:58:51.268Z,14.82
2022-08-17T13:01:53.885Z,13.82
2022-08-17T13:04:56.968Z,12.70
2022-08-17T13:08:00.323Z,12.77
2022-08-17T13:11:03.753Z,13.75
2022-08-17T13:14:06.768Z,13.90
2022-08-17T13:17:13.373Z,13.32
2022-08-17T13:20:16.485Z,13.90
2022-08-17T13:23:19.414Z,13.95
2022-08-17T13:26:22.440Z,13.73
2022-08-17T13:29:25.442Z,14.02
2022-08-17T13:32:28.241Z,13.82
2022-08-17T13:35:34.466Z,13.75
2022-08-17T13:38:42.020Z,14.55
2022-08-17T13:41:44.179Z,14.32
2022-08-17T13:44:46.765Z,14.05
2022-08-17T13:47:49.571Z,14.88
2022-08-17T13:50:52.666Z,15.27
2022-08-17T13:53:55.076Z,16.48
2022-08-17T13:56:57.541Z,14.27
2022-08-17T14:00:00.664Z,15.18
2022-08-17T14:03:03.658Z,20.27
2022-08-17T14:06:06.492Z,25.65
2022-08-17T14:09:09.322Z,23.75
2022-08-17T14:12:12.032Z,24.58
2022-08-17T14:15:14.522Z,24.95
2022-08-17T14:18:17.767Z,25.60
2022-08-17T14:21:21.016Z,24.95
2022-08-17T14:24:23.584Z,22.33
2022-08-17T14:27:26.646Z,24.13
2022-08-17T14:30:30.070Z,23.20
2022-08-17T14:33:32.919Z,21.83
2022-08-17T14:36:35.519Z,23.80
2022-08-17T14:39:38.473Z,23.15
2022-08-17T14:42:41.191Z,22.10
2022-08-17T14:45:43.374Z,21.02
2022-08-17T14:48:45.851Z,19.08
2022-08-17T14:51:48.761Z,19.30
2022-08-17T14:54:51.832Z,29.35
2022-08-17T14:57:54.617Z,25.85
2022-08-17T15:00:57.372Z,22.90
2022-08-17T15:04:00.319Z,26.30
2022-08-17T15:07:03.041Z,25.73
2022-08-17T15:10:05.865Z,24.88
2022-08-17T15:13:08.823Z,29.27
2022-08-17T15:16:11.750Z,30.23
2022-08-17T15:19:14.757Z,29.08
2022-08-17T15:22:18.046Z,27.02
2022-08-17T15:25:20.879Z,29.92
2022-08-17T15:28:23.276Z,25.38
2022-08-17T15:31:32.385Z,23.38
2022-08-17T15:34:35.283Z,24.92
2022-08-17T15:37:38.377Z,26.60
2022-08-17T15:40:41.468Z,27.13
2022-08-17T15:43:44.278Z,27.52
2022-08-17T15:46:47.232Z,26.90
2022-08-17T15:49:57.910Z,25.52
2022-08-17T15:53:02.598Z,29.75
2022-08-17T15:56:05.506Z,25.17
2022-08-17T15:59:08.298Z,29.02
2022-08-17T16:03:14.238Z,24.20
2022-08-17T16:05:33.837Z,26.23
2022-08-17T16:08:37.455Z,25.35
2022-08-17T16:11:40.456Z,26.23
2022-08-17T16:14:43.409Z,24.55
2022-08-17T16:17:46.368Z,23.35
2022-08-17T16:20:49.431Z,23.13
2022-08-17T16:23:52.394Z,23.95
2022-08-17T16:26:55.328Z,23.08
2022-08-17T16:29:58.048Z,22.33
2022-08-17T16:33:01.033Z,20.73
2022-08-17T16:36:03.262Z,20.23
2022-08-17T16:39:05.949Z,22.63
2022-08-17T16:42:08.977Z,18.83
2022-08-17T16:45:11.858Z,19.63
2022-08-17T16:48:14.487Z,18.17
2022-08-17T16:51:17.220Z,18.60
2022-08-17T16:54:20.569Z,20.55
2022-08-17T16:57:22.783Z,21.67
2022-08-17T17:00:25.876Z,19.08
2022-08-17T17:03:28.954Z,18.52
2022-08-17T17:06:31.848Z,20.52
2022-08-17T17:09:35.029Z,21.40
2022-08-17T17:13:02.714Z,21.85
2022-08-17T17:16:00.991Z,19.25
2022-08-17T17:19:04.417Z,20.00
2022-08-17T17:22:07.571Z,20.52
2022-08-17T17:25:10.183Z,21.92
2022-08-17T17:28:13.158Z,21.42
2022-08-17T17:31:16.622Z,20.90
2022-08-17T17:34:19.513Z,20.85
2022-08-17T17:37:22.270Z,20.38
2022-08-17T17:40:24.908Z,21.10
2022-08-17T17:43:38.832Z,21.52
2022-08-17T17:46:41.866Z,21.88
2022-08-17T17:49:44.483Z,21.35
2022-08-17T17:52:47.476Z,20.52
2022-08-17T17:55:50.353Z,20.25
2022-08-17T17:58:53.193Z,22.00
2022-08-17T18:01:55.832Z,21.33
2022-08-17T18:04:58.433Z,20.08
2022-08-17T18:08:04.699Z,21.75
2022-08-17T18:11:09.679Z,22.52
2022-08-17T18:14:13.135Z,21.48
2022-08-17T18:17:16.054Z,20.67
2022-08-17T18:20:18.219Z,21.00
2022-08-17T18:23:23.168Z,21.27
2022-08-17T18:26:33.978Z,21.50
2022-08-17T18:29:37.505Z,20.45
2022-08-17T18:32:41.157Z,21.23
2022-08-17T18:35:44.445Z,21.48
2022-08-17T18:38:46.994Z,21.90
2022-08-17T18:41:49.838Z,20.90
2022-08-17T18:44:55.141Z,20.50
2022-08-17T18:47:58.261Z,20.65
2022-08-17T18:51:01.049Z,21.27
2022-08-17T18:54:04.695Z,20.98
2022-08-17T18:57:07.966Z,21.73
2022-08-17T19:00:10.900Z,21.17
2022-08-17T19:03:18.346Z,21.60
2022-08-17T19:06:20.555Z,20.25
2022-08-17T19:09:23.178Z,18.85
2022-08-17T19:12:27.503Z,15.20
2022-08-17T19:15:30.616Z,13.38
2022-08-17T19:18:33.416Z,14.20
2022-08-17T19:21:37.174Z,11.48
2022-08-17T19:24:47.598Z,11.15
2022-08-17T19:27:50.738Z,10.63
2022-08-17T19:30:59.999Z,10.63
2022-08-17T19:34:03.094Z,10.63
2022-08-17T19:37:05.689Z,9.75
2022-08-17T19:40:08.261Z,9.18
2022-08-17T19:43:11.341Z,8.80
2022-08-17T19:46:14.823Z,8.77
2022-08-17T19:49:18.184Z,9.13
2022-08-17T19:52:21.255Z,9.15
2022-08-17T19:55:24.739Z,9.43
2022-08-17T19:58:27.904Z,8.88
2022-08-17T20:01:34.535Z,8.80
2022-08-17T20:04:37.711Z,9.80
2022-08-17T20:07:40.767Z,11.13
2022-08-17T20:10:43.927Z,8.35
2022-08-17T20:13:49.542Z,9.68
2022-08-17T20:16:52.592Z,8.63
2022-08-17T20:19:55.715Z,8.40
2022-08-17T20:22:58.666Z,8.52
2022-08-17T20:26:01.383Z,8.50
2022-08-17T20:29:03.628Z,8.40
2022-08-17T20:32:06.385Z,8.57
2022-08-17T20:35:09.077Z,8.95
2022-08-17T20:38:11.744Z,10.23
2022-08-17T20:41:14.030Z,8.98
2022-08-17T20:44:17.060Z,9.35
2022-08-17T20:47:22.751Z,8.93
2022-08-17T20:50:29.733Z,8.82
2022-08-17T20:53:33.312Z,8.70
2022-08-17T20:56:36.325Z,8.63
2022-08-17T20:59:38.820Z,8.45
2022-08-17T21:02:40.763Z,8.65
2022-08-17T21:05:42.961Z,8.15
2022-08-17T21:08:45.853Z,9.07
2022-08-17T21:12:02.968Z,8.82
2022-08-17T21:15:07.292Z,8.10
2022-08-17T21:18:10.491Z,8.27
2022-08-17T21:21:17.294Z,8.80
2022-08-17T21:24:20.268Z,8.15
2022-08-17T21:27:23.296Z,8.80
2022-08-17T21:30:26.612Z,9.05
2022-08-17T21:33:30.349Z,8.90
2022-08-17T21:36:33.601Z,8.80
2022-08-17T21:39:36.458Z,8.80
2022-08-17T21:42:39.535Z,9.35
2022-08-17T21:45:42.007Z,8.63
2022-08-17T21:48:44.964Z,8.88
2022-08-17T21:51:50.482Z,13.32
2022-08-17T21:54:53.577Z,8.80
2022-08-17T21:58:14.958Z,10.20
2022-08-17T22:01:17.545Z,9.57
2022-08-17T22:04:19.865Z,9.43
2022-08-17T22:07:22.169Z,9.50
2022-08-17T22:10:25.049Z,9.27
2022-08-17T22:13:29.771Z,10.32
2022-08-17T22:16:32.543Z,9.23
2022-08-17T22:19:35.549Z,10.00
2022-08-17T22:22:38.914Z,9.32
2022-08-17T22:25:41.594Z,9.13
2022-08-17T22:28:44.398Z,9.35
2022-08-17T22:31:47.051Z,9.20
2022-08-17T22:34:49.055Z,9.10
2022-08-17T22:37:52.680Z,8.98
2022-08-17T22:40:55.440Z,9.68
2022-08-17T22:43:58.470Z,9.27
2022-08-17T22:47:01.463Z,8.68
2022-08-17T22:50:04.207Z,10.30
2022-08-17T22:53:07.769Z,9.10
2022-08-17T22:56:11.025Z,9.40
2022-08-17T22:59:13.990Z,9.13
2022-08-17T23:02:16.919Z,9.68
2022-08-17T23:05:20.345Z,9.35
2022-08-17T23:08:22.585Z,9.02
2022-08-17T23:11:42.952Z,9.27
2022-08-17T23:14:46.605Z,8.68
2022-08-17T23:17:49.637Z,9.10
2022-08-17T23:20:52.123Z,8.25
2022-08-17T23:23:54.808Z,8.13
2022-08-17T23:26:56.960Z,8.30
2022-08-17T23:29:59.841Z,8.73
2022-08-17T23:33:03.574Z,8.40
2022-08-17T23:36:06.478Z,8.10
2022-08-17T23:39:09.089Z,8.75
2022-08-17T23:42:12.098Z,8.35
2022-08-17T23:45:14.816Z,10.23
2022-08-17T23:48:28.581Z,8.05
2022-08-17T23:51:39.575Z,8.05
2022-08-17T23:54:42.340Z,8.00
2022-08-17T23:57:45.059Z,7.55
